Time;durP1;ratioP1;P1;durP2;ratioP2;P2;SDS_P1;SDS_P2;PMS_P1;PMS_P2;Temp;Humidity;BMP_temperature;BMP_pressure;BME280_temperature;BME280_humidity;BME280_pressure;Samples;Min_cycle;Max_cycle;Signal;HPM_P1;HPM_P2
2023/04/20 00:02:08;;;;;;;6.85;3.08;;;8.40;99.30;;;;;;5073642;28;20067;-74
2023/04/20 00:04:35;;;;;;;11.15;3.65;;;8.40;99.90;;;;;;5073599;28;20036;-73
2023/04/20 00:07:01;;;;;;;8.15;3.50;;;8.30;99.90;;;;;;5073430;28;20032;-74
2023/04/20 00:09:27;;;;;;;7.72;3.60;;;8.20;99.90;;;;;;5072304;28;20077;-74
2023/04/20 00:11:55;;;;;;;9.10;3.53;;;8.20;99.90;;;;;;5072093;28;20744;-74
2023/04/20 00:14:21;;;;;;;6.30;3.10;;;8.10;99.90;;;;;;5069248;28;20024;-74
2023/04/20 00:16:47;;;;;;;6.50;3.80;;;8.10;99.90;;;;;;5073557;28;20115;-73
2023/04/20 00:19:13;;;;;;;7.47;3.63;;;8.00;99.90;;;;;;5073539;28;20078;-73
2023/04/20 00:21:38;;;;;;;10.32;4.18;;;8.00;99.90;;;;;;5073644;28;20029;-74
2023/04/20 00:24:04;;;;;;;8.95;3.88;;;7.90;99.90;;;;;;5073582;28;20032;-74
2023/04/20 00:26:29;;;;;;;7.35;3.67;;;7.90;99.90;;;;;;5068384;28;20028;-74
2023/04/20 00:28:55;;;;;;;9.73;4.43;;;7.80;99.90;;;;;;5071258;28;20056;-73
2023/04/20 00:31:21;;;;;;;8.65;3.50;;;7.80;99.90;;;;;;5064573;28;20098;-74
2023/04/20 00:33:49;;;;;;;7.60;3.92;;;7.70;99.90;;;;;;5072766;28;20029;-74
2023/04/20 00:36:15;;;;;;;7.13;3.58;;;7.70;99.90;;;;;;5073052;28;20051;-73
2023/04/20 00:38:41;;;;;;;8.43;3.72;;;7.70;99.90;;;;;;5072447;28;20025;-73
2023/04/20 00:41:06;;;;;;;9.25;3.70;;;7.60;99.90;;;;;;5072356;28;20028;-73
2023/04/20 00:43:32;;;;;;;8.38;3.97;;;7.60;99.90;;;;;;5072969;28;20024;-73
2023/04/20 00:45:57;;;;;;;6.93;3.65;;;7.60;99.90;;;;;;5072810;28;20032;-73
2023/04/20 00:48:23;;;;;;;8.13;3.85;;;7.60;99.90;;;;;;5067667;28;20497;-73
2023/04/20 00:50:50;;;;;;;8.13;4.00;;;7.50;99.90;;;;;;5060286;28;20016;-74
2023/04/20 00:53:17;;;;;;;7.10;3.60;;;7.50;99.90;;;;;;5065410;28;20048;-74
2023/04/20 00:55:44;;;;;;;9.57;4.50;;;7.50;99.90;;;;;;5066167;28;20028;-72
2023/04/20 00:58:10;;;;;;;9.50;3.90;;;7.40;99.90;;;;;;5072954;28;20167;-73
2023/04/20 01:00:37;;;;;;;8.65;3.90;;;7.40;99.90;;;;;;5073102;28;20032;-72
2023/04/20 01:03:03;;;;;;;8.65;4.10;;;7.40;99.90;;;;;;5072913;28;20610;-73
2023/04/20 01:05:31;;;;;;;11.15;4.50;;;7.40;99.90;;;;;;5071955;28;20020;-73
2023/04/20 01:07:57;;;;;;;9.38;3.88;;;7.30;99.90;;;;;;5069478;28;20453;-75
2023/04/20 01:10:22;;;;;;;8.82;4.05;;;7.30;99.90;;;;;;5073001;28;20031;-74
2023/04/20 01:12:48;;;;;;;9.30;3.97;;;7.30;99.90;;;;;;5072002;28;20465;-76
2023/04/20 01:15:14;;;;;;;8.38;4.15;;;7.20;99.90;;;;;;5069442;28;20028;-75
2023/04/20 01:17:39;;;;;;;7.82;3.85;;;7.20;99.90;;;;;;5071270;28;20029;-75
2023/04/20 01:20:12;;;;;;;8.10;4.30;;;7.20;99.90;;;;;;5072641;28;20043;-76
2023/04/20 01:22:44;;;;;;;7.97;3.95;;;7.20;99.90;;;;;;5070588;28;20029;-76
2023/04/20 01:25:09;;;;;;;6.47;4.13;;;7.20;99.90;;;;;;5072475;28;20082;-76
2023/04/20 01:27:35;;;;;;;9.25;3.78;;;7.10;99.90;;;;;;5071078;28;20048;-77
2023/04/20 01:30:00;;;;;;;9.20;4.07;;;7.10;99.90;;;;;;5070941;28;20495;-76
2023/04/20 01:32:26;;;;;;;9.45;4.03;;;7.10;99.90;;;;;;5072642;28;20033;-74
2023/04/20 01:34:52;;;;;;;8.80;3.47;;;7.10;99.90;;;;;;5071706;28;20024;-78
2023/04/20 01:37:17;;;;;;;10.52;4.25;;;7.20;99.90;;;;;;5072263;28;20032;-74
2023/04/20 01:39:44;;;;;;;12.75;4.93;;;7.10;99.90;;;;;;5072613;28;20032;-76
2023/04/20 01:42:10;;;;;;;9.93;4.38;;;7.20;99.90;;;;;;5072479;28;20025;-74
2023/04/20 01:44:35;;;;;;;11.15;4.10;;;7.10;99.90;;;;;;5071853;28;20027;-76
2023/04/20 01:47:01;;;;;;;8.88;4.28;;;7.10;99.90;;;;;;5069785;28;20036;-77
2023/04/20 01:49:27;;;;;;;8.60;3.97;;;7.10;99.90;;;;;;5064541;28;20119;-76
2023/04/20 01:51:52;;;;;;;9.55;4.80;;;7.10;99.90;;;;;;5071591;28;20033;-76
2023/04/20 01:54:18;;;;;;;9.75;4.82;;;7.10;99.90;;;;;;5072534;28;20090;-76
2023/04/20 01:56:44;;;;;;;10.32;4.10;;;7.10;99.90;;;;;;5070999;28;20033;-75
2023/04/20 01:59:09;;;;;;;9.02;4.75;;;7.10;99.90;;;;;;5072001;28;20021;-78
2023/04/20 02:01:35;;;;;;;11.10;4.57;;;7.10;99.90;;;;;;5070364;28;20404;-77
2023/04/20 02:04:01;;;;;;;8.20;4.40;;;7.10;99.90;;;;;;5071076;28;20530;-75
2023/04/20 02:06:26;;;;;;;9.43;4.45;;;7.10;99.90;;;;;;5072044;28;20036;-75
2023/04/20 02:08:52;;;;;;;8.25;3.90;;;7.10;99.90;;;;;;5071975;28;20111;-75
2023/04/20 02:11:18;;;;;;;10.75;4.88;;;7.10;99.90;;;;;;5072453;28;20032;-75
2023/04/20 02:13:43;;;;;;;7.53;3.78;;;7.10;99.90;;;;;;5071441;28;20086;-72
2023/04/20 02:16:09;;;;;;;9.18;4.00;;;7.20;99.90;;;;;;5071892;28;20025;-74
2023/04/20 02:18:36;;;;;;;7.80;4.20;;;7.20;99.90;;;;;;5084703;28;20463;-74
2023/04/20 02:21:02;;;;;;;9.40;3.65;;;7.20;99.90;;;;;;5072171;28;20024;-72
2023/04/20 02:23:54;;;;;;;8.68;3.83;;;7.20;99.90;;;;;;5072061;28;20078;-77
2023/04/20 02:26:19;;;;;;;10.65;4.13;;;7.30;99.90;;;;;;5068302;28;20505;-72
2023/04/20 02:28:46;;;;;;;6.90;3.83;;;7.30;99.90;;;;;;5071732;28;20123;-77
2023/04/20 02:31:11;;;;;;;9.52;4.05;;;7.40;99.90;;;;;;5072636;28;20040;-75
2023/04/20 02:33:39;;;;;;;8.45;4.00;;;7.40;99.90;;;;;;5071630;28;20131;-74
2023/04/20 02:36:04;;;;;;;12.13;3.83;;;7.40;99.90;;;;;;5074120;28;20020;-77
2023/04/20 02:38:30;;;;;;;11.57;4.10;;;7.40;99.90;;;;;;5075600;28;20074;-74
2023/04/20 02:40:56;;;;;;;8.68;3.58;;;7.50;99.90;;;;;;5074651;28;20031;-77
2023/04/20 02:43:22;;;;;;;7.47;3.95;;;7.60;99.90;;;;;;5075692;28;20411;-74
2023/04/20 02:45:47;;;;;;;7.55;3.53;;;7.70;99.90;;;;;;5073870;28;20438;-76
2023/04/20 02:48:13;;;;;;;8.70;3.67;;;7.70;99.90;;;;;;5075449;28;20071;-74
2023/04/20 02:50:40;;;;;;;8.20;3.33;;;7.80;99.90;;;;;;5076105;28;20024;-77
2023/04/20 02:53:05;;;;;;;6.15;2.72;;;7.90;99.90;;;;;;5075513;28;20024;-77
2023/04/20 02:55:31;;;;;;;7.13;2.83;;;7.90;99.90;;;;;;5073977;28;20029;-74
2023/04/20 02:57:56;;;;;;;7.38;3.22;;;8.00;99.90;;;;;;5075288;28;20116;-76
2023/04/20 03:00:23;;;;;;;4.70;3.33;;;8.10;99.90;;;;;;5075290;28;20032;-76
2023/04/20 03:02:48;;;;;;;8.18;3.38;;;8.00;99.90;;;;;;5075244;28;20051;-75
2023/04/20 03:05:14;;;;;;;6.70;2.80;;;8.00;99.90;;;;;;5075340;28;20444;-73
2023/04/20 03:07:39;;;;;;;6.35;2.78;;;8.00;99.90;;;;;;5073993;28;20091;-74
2023/04/20 03:10:06;;;;;;;8.35;2.90;;;8.00;99.90;;;;;;5074735;28;20086;-75
2023/04/20 03:12:31;;;;;;;5.57;2.90;;;8.10;99.90;;;;;;5075286;28;20028;-73
2023/04/20 03:14:57;;;;;;;4.47;2.85;;;8.10;99.90;;;;;;5074686;28;20039;-74
2023/04/20 03:17:23;;;;;;;5.03;2.65;;;8.10;99.90;;;;;;5074317;28;20107;-76
2023/04/20 03:19:50;;;;;;;6.40;2.92;;;8.20;99.90;;;;;;5074622;28;20042;-76
2023/04/20 03:22:18;;;;;;;7.38;3.22;;;8.20;99.90;;;;;;5074862;28;20028;-76
2023/04/20 03:24:43;;;;;;;10.68;2.90;;;8.30;99.90;;;;;;5074112;28;20031;-74
2023/04/20 03:27:09;;;;;;;7.13;3.20;;;8.30;99.90;;;;;;5072671;28;20032;-75
2023/04/20 03:29:34;;;;;;;6.95;2.80;;;8.40;99.90;;;;;;5074159;28;20127;-73
2023/04/20 03:32:00;;;;;;;5.55;2.63;;;8.40;99.90;;;;;;5073297;28;20033;-72
2023/04/20 03:34:25;;;;;;;4.70;2.08;;;8.50;99.90;;;;;;5072802;28;20039;-74
2023/04/20 03:36:52;;;;;;;4.35;2.53;;;8.60;99.90;;;;;;5069489;28;20020;-77
2023/04/20 03:39:17;;;;;;;7.75;2.85;;;8.60;99.90;;;;;;5073655;28;20031;-72
2023/04/20 03:41:43;;;;;;;4.40;2.20;;;8.70;99.90;;;;;;5073603;28;20024;-75
2023/04/20 03:44:09;;;;;;;4.50;2.17;;;8.70;99.90;;;;;;5074342;28;20060;-72
2023/04/20 03:46:35;;;;;;;5.32;2.40;;;8.80;99.90;;;;;;5073736;28;20036;-77
2023/04/20 03:49:01;;;;;;;4.43;2.28;;;8.80;99.90;;;;;;5073718;28;20032;-75
2023/04/20 03:51:26;;;;;;;6.43;2.63;;;8.80;99.90;;;;;;5074254;28;20112;-75
2023/04/20 03:53:52;;;;;;;4.88;2.33;;;8.90;99.90;;;;;;5073752;28;20031;-75
2023/04/20 03:56:17;;;;;;;7.57;2.20;;;8.90;99.90;;;;;;5073776;28;20108;-73
2023/04/20 03:58:43;;;;;;;8.63;2.50;;;9.00;99.90;;;;;;5074629;28;20463;-72
2023/04/20 04:01:11;;;;;;;6.18;2.30;;;9.00;99.90;;;;;;5074211;28;20036;-75
2023/04/20 04:03:37;;;;;;;5.95;2.50;;;9.00;99.90;;;;;;5074506;28;20025;-73
2023/04/20 04:06:03;;;;;;;5.20;2.47;;;9.00;99.90;;;;;;5074177;28;20078;-73
2023/04/20 04:08:30;;;;;;;7.35;2.60;;;9.00;99.90;;;;;;5073452;28;20044;-73
2023/04/20 04:10:56;;;;;;;4.93;2.35;;;9.00;99.90;;;;;;5074641;28;20514;-72
2023/04/20 04:13:22;;;;;;;7.88;2.85;;;9.00;99.90;;;;;;5074209;28;20396;-71
2023/04/20 04:15:48;;;;;;;8.27;2.50;;;8.90;99.90;;;;;;5074159;28;20120;-75
2023/04/20 04:18:14;;;;;;;5.72;2.38;;;8.90;99.90;;;;;;5074595;28;20074;-75
2023/04/20 04:20:39;;;;;;;7.65;2.95;;;8.80;99.90;;;;;;5072843;28;20021;-74
2023/04/20 04:23:05;;;;;;;10.23;3.00;;;8.70;99.90;;;;;;5072279;28;20108;-75
2023/04/20 04:25:31;;;;;;;8.82;2.65;;;8.70;99.90;;;;;;5071222;28;20028;-72
2023/04/20 04:27:57;;;;;;;8.95;2.38;;;8.60;99.90;;;;;;5072967;28;20048;-72
2023/04/20 04:30:23;;;;;;;5.68;2.63;;;8.60;99.90;;;;;;5072708;28;20025;-73
2023/04/20 04:32:49;;;;;;;9.25;2.67;;;8.50;99.90;;;;;;5073743;28;20158;-71
2023/04/20 04:35:15;;;;;;;7.28;2.50;;;8.50;99.90;;;;;;5074000;28;20169;-73
2023/04/20 04:37:41;;;;;;;10.07;3.20;;;8.50;99.90;;;;;;5073314;28;20459;-75
2023/04/20 04:40:08;;;;;;;8.80;2.90;;;8.40;99.90;;;;;;5073814;28;20457;-74
2023/04/20 04:42:34;;;;;;;7.25;2.58;;;8.40;99.90;;;;;;5073281;28;20056;-76
2023/04/20 04:45:01;;;;;;;7.70;2.55;;;8.40;99.90;;;;;;5072805;28;20031;-73
2023/04/20 04:47:28;;;;;;;6.50;2.78;;;8.40;99.90;;;;;;5072943;28;20044;-74
2023/04/20 04:49:54;;;;;;;7.03;2.63;;;8.40;99.90;;;;;;5073378;28;20021;-75
2023/04/20 04:52:20;;;;;;;8.55;2.50;;;8.50;99.90;;;;;;5073611;28;20027;-72
2023/04/20 04:54:46;;;;;;;7.35;2.45;;;8.50;99.90;;;;;;5072843;28;20031;-76
2023/04/20 04:57:12;;;;;;;4.20;1.77;;;8.60;99.90;;;;;;5072176;28;20112;-73
2023/04/20 04:59:37;;;;;;;7.25;2.38;;;8.60;99.90;;;;;;5073320;28;20028;-77
2023/04/20 05:02:03;;;;;;;7.90;2.47;;;8.70;99.90;;;;;;5073427;28;20070;-74
2023/04/20 05:04:28;;;;;;;6.07;2.25;;;8.70;99.90;;;;;;5072257;28;20421;-72
2023/04/20 05:06:54;;;;;;;7.63;2.33;;;8.80;99.90;;;;;;5073185;28;20511;-76
2023/04/20 05:09:19;;;;;;;4.85;2.28;;;8.80;99.90;;;;;;5072886;28;20024;-77
2023/04/20 05:11:45;;;;;;;8.05;2.40;;;8.90;99.90;;;;;;5072893;28;20029;-73
2023/04/20 05:14:10;;;;;;;12.48;2.30;;;8.90;99.90;;;;;;5072504;28;20101;-74
2023/04/20 05:16:36;;;;;;;5.45;2.53;;;9.00;99.90;;;;;;5071917;28;20036;-73
2023/04/20 05:19:02;;;;;;;10.65;2.88;;;9.00;99.90;;;;;;5072906;28;20104;-73
2023/04/20 05:21:27;;;;;;;8.40;2.65;;;9.10;99.90;;;;;;5072989;28;20044;-74
2023/04/20 05:23:53;;;;;;;9.10;2.05;;;9.10;99.90;;;;;;5067274;28;20126;-75
2023/04/20 05:26:19;;;;;;;5.22;1.92;;;9.10;99.90;;;;;;5071746;28;20036;-72
2023/04/20 05:28:44;;;;;;;3.85;2.00;;;9.10;99.90;;;;;;5072667;28;20058;-74
2023/04/20 05:31:10;;;;;;;5.80;1.75;;;9.10;99.90;;;;;;5073127;28;20074;-74
2023/04/20 05:33:35;;;;;;;11.93;2.30;;;9.20;99.90;;;;;;5072446;28;20036;-73
2023/04/20 05:36:01;;;;;;;12.38;2.75;;;9.20;99.90;;;;;;5072728;28;20028;-73
2023/04/20 05:38:26;;;;;;;6.95;2.45;;;9.20;99.90;;;;;;5072010;28;20033;-73
2023/04/20 05:40:52;;;;;;;5.53;2.20;;;9.30;99.90;;;;;;5072616;28;20052;-74
2023/04/20 05:43:18;;;;;;;4.90;2.05;;;9.40;99.90;;;;;;5072587;28;20039;-71
2023/04/20 05:45:45;;;;;;;7.10;2.25;;;9.40;99.90;;;;;;5072892;28;20480;-74
2023/04/20 05:48:10;;;;;;;6.22;2.10;;;9.50;99.90;;;;;;5071578;28;20139;-74
2023/04/20 05:50:36;;;;;;;6.50;2.00;;;9.60;99.90;;;;;;5070875;28;20473;-74
2023/04/20 05:53:02;;;;;;;7.20;2.33;;;9.60;99.90;;;;;;5072637;28;20021;-73
2023/04/20 05:55:27;;;;;;;4.25;2.10;;;9.70;99.90;;;;;;5072703;28;20032;-74
2023/04/20 05:57:53;;;;;;;5.95;2.10;;;9.80;99.90;;;;;;5071302;28;20021;-76
2023/04/20 06:00:19;;;;;;;7.07;2.60;;;9.80;99.90;;;;;;5071883;28;20040;-74
2023/04/20 06:02:45;;;;;;;9.40;2.72;;;9.80;99.90;;;;;;5072425;28;20036;-75
2023/04/20 06:05:11;;;;;;;8.75;3.47;;;9.80;99.90;;;;;;5071156;28;20047;-72
2023/04/20 06:07:37;;;;;;;5.53;2.10;;;9.90;99.90;;;;;;5071827;28;20044;-72
2023/04/20 06:10:04;;;;;;;6.53;2.25;;;9.90;99.90;;;;;;5073985;28;20048;-73
2023/04/20 06:12:30;;;;;;;5.60;2.33;;;10.00;99.90;;;;;;5076616;28;20025;-74
2023/04/20 06:14:56;;;;;;;4.53;1.85;;;10.00;99.90;;;;;;5076737;28;20031;-76
2023/04/20 06:17:22;;;;;;;9.02;2.60;;;10.10;99.90;;;;;;5076507;28;20056;-73
2023/04/20 06:19:48;;;;;;;6.60;2.03;;;10.10;99.90;;;;;;5076297;28;20067;-73
2023/04/20 06:22:14;;;;;;;8.10;2.22;;;10.10;99.90;;;;;;5078794;28;20573;-74
2023/04/20 06:24:41;;;;;;;2.90;1.73;;;10.20;99.90;;;;;;5078589;28;20031;-75
2023/04/20 06:27:07;;;;;;;5.35;2.45;;;10.20;99.90;;;;;;5077385;28;20537;-74
2023/04/20 06:29:33;;;;;;;5.35;2.08;;;10.20;99.90;;;;;;5078105;28;20496;-75
2023/04/20 06:31:58;;;;;;;8.25;2.00;;;10.20;99.90;;;;;;5078088;28;20029;-75
2023/04/20 06:34:24;;;;;;;6.38;2.17;;;10.20;99.90;;;;;;5078030;28;20028;-75
2023/04/20 06:36:49;;;;;;;4.55;2.33;;;10.20;99.90;;;;;;5078850;28;20095;-74
2023/04/20 06:39:16;;;;;;;9.60;2.47;;;10.30;99.90;;;;;;5078116;28;20036;-76
2023/04/20 06:41:42;;;;;;;9.38;2.50;;;10.30;99.90;;;;;;5078455;28;20485;-72
2023/04/20 06:44:07;;;;;;;4.13;2.30;;;10.30;99.90;;;;;;5076111;28;20092;-75
2023/04/20 06:46:33;;;;;;;11.23;2.80;;;10.30;99.90;;;;;;5075703;28;20021;-75
2023/04/20 06:48:59;;;;;;;9.02;2.80;;;10.30;99.90;;;;;;5075120;28;20029;-74
2023/04/20 06:51:26;;;;;;;8.48;2.50;;;10.30;99.90;;;;;;5074271;28;20047;-76
2023/04/20 06:53:51;;;;;;;4.70;2.40;;;10.20;99.90;;;;;;5075498;28;20017;-74
2023/04/20 06:56:17;;;;;;;13.95;2.97;;;10.10;99.90;;;;;;5074206;28;20028;-76
2023/04/20 06:58:42;;;;;;;7.10;2.67;;;10.00;99.90;;;;;;5074993;28;20036;-73
2023/04/20 07:01:08;;;;;;;8.10;2.45;;;9.90;99.90;;;;;;5074762;28;20032;-75
2023/04/20 07:03:34;;;;;;;6.05;2.45;;;9.90;99.90;;;;;;5075181;28;20036;-73
2023/04/20 07:05:59;;;;;;;10.77;2.92;;;9.90;99.90;;;;;;5073906;28;20118;-76
2023/04/20 07:08:25;;;;;;;6.15;2.25;;;9.90;99.90;;;;;;5073737;28;20032;-75
2023/04/20 07:10:51;;;;;;;7.95;3.03;;;9.80;99.90;;;;;;5073852;28;20085;-77
2023/04/20 07:13:16;;;;;;;7.82;2.72;;;9.70;99.90;;;;;;5074649;28;20079;-72
2023/04/20 07:15:44;;;;;;;9.50;2.78;;;9.60;99.90;;;;;;5073956;28;20060;-72
2023/04/20 07:18:10;;;;;;;8.48;2.78;;;9.50;99.90;;;;;;5073065;28;20024;-73
2023/04/20 07:20:35;;;;;;;6.18;2.58;;;9.30;99.90;;;;;;5073534;28;20028;-74
2023/04/20 07:23:01;;;;;;;8.93;2.92;;;9.20;99.90;;;;;;5074864;28;20028;-75
2023/04/20 07:25:27;;;;;;;9.00;2.50;;;9.10;99.90;;;;;;5074184;28;20040;-73
2023/04/20 07:27:52;;;;;;;5.78;2.25;;;9.00;99.90;;;;;;5073620;28;20385;-75
2023/04/20 07:30:18;;;;;;;9.90;3.45;;;9.00;99.90;;;;;;5073834;28;20036;-76
2023/04/20 07:32:43;;;;;;;8.77;2.90;;;8.90;99.90;;;;;;5075102;28;20517;-75
2023/04/20 07:35:09;;;;;;;7.18;2.67;;;9.00;99.90;;;;;;5074266;28;20051;-72
2023/04/20 07:37:35;;;;;;;9.52;3.33;;;9.00;99.90;;;;;;5075257;28;20024;-74
2023/04/20 07:40:01;;;;;;;7.93;2.97;;;9.10;99.90;;;;;;5074471;28;20104;-73
2023/04/20 07:42:27;;;;;;;8.30;2.67;;;9.30;99.90;;;;;;5074647;28;20389;-75
2023/04/20 07:44:53;;;;;;;5.40;2.60;;;9.40;99.90;;;;;;5073848;28;20111;-74
2023/04/20 07:47:18;;;;;;;6.28;2.75;;;9.60;99.90;;;;;;5074402;28;20127;-73
2023/04/20 07:49:44;;;;;;;9.70;2.72;;;9.70;99.90;;;;;;5072433;28;20021;-75
2023/04/20 07:52:11;;;;;;;4.70;2.45;;;9.90;99.90;;;;;;5074024;28;20028;-76
2023/04/20 07:54:37;;;;;;;8.63;2.60;;;10.00;99.90;;;;;;5074165;28;20029;-73
2023/04/20 07:57:02;;;;;;;8.43;2.75;;;10.10;99.90;;;;;;5074111;28;20124;-74
2023/04/20 07:59:28;;;;;;;8.23;2.90;;;10.20;99.90;;;;;;5073545;28;20028;-75
2023/04/20 08:02:01;;;;;;;6.93;2.50;;;10.30;99.90;;;;;;5074131;28;20021;-73
2023/04/20 08:04:27;;;;;;;4.78;1.80;;;10.40;99.90;;;;;;5074424;28;20089;-77
2023/04/20 08:06:53;;;;;;;8.02;2.80;;;10.40;99.90;;;;;;5074652;28;20040;-73
2023/04/20 08:09:19;;;;;;;5.53;2.28;;;10.20;99.90;;;;;;5073005;28;20075;-74
2023/04/20 08:11:45;;;;;;;7.35;2.60;;;10.00;99.90;;;;;;5073578;28;20525;-72
2023/04/20 08:14:11;;;;;;;6.97;3.13;;;9.60;99.90;;;;;;5073689;28;20100;-71
2023/04/20 08:16:36;;;;;;;7.82;3.28;;;9.30;99.90;;;;;;5074046;28;20079;-74
2023/04/20 08:19:08;;;;;;;4.88;2.53;;;9.00;99.90;;;;;;5073617;28;20029;-71
2023/04/20 08:21:37;;;;;;;7.57;3.22;;;8.70;99.90;;;;;;5073616;28;20102;-70
2023/04/20 08:24:03;;;;;;;7.82;2.83;;;8.50;99.90;;;;;;5073486;28;20484;-68
2023/04/20 08:26:30;;;;;;;5.35;2.92;;;8.30;99.90;;;;;;5072686;28;20052;-69
2023/04/20 08:28:55;;;;;;;6.95;2.80;;;8.10;99.90;;;;;;5072658;28;20500;-70
2023/04/20 08:31:21;;;;;;;7.68;3.15;;;7.90;99.90;;;;;;5072926;28;20028;-69
2023/04/20 08:33:46;;;;;;;9.40;3.78;;;7.80;99.90;;;;;;5073171;28;20033;-70
2023/04/20 08:36:12;;;;;;;6.55;3.22;;;7.70;99.90;;;;;;5073537;28;20512;-70
2023/04/20 08:38:38;;;;;;;7.97;3.38;;;7.60;99.90;;;;;;5073582;28;20036;-68
2023/04/20 08:41:03;;;;;;;5.88;3.45;;;7.60;99.90;;;;;;5073314;28;20534;-70
2023/04/20 08:43:30;;;;;;;7.45;3.70;;;7.50;99.90;;;;;;5073420;28;20531;-70
2023/04/20 08:46:01;;;;;;;11.48;3.95;;;7.50;99.90;;;;;;5073798;28;20123;-68
2023/04/20 08:48:36;;;;;;;9.95;3.65;;;7.40;99.90;;;;;;5073186;28;20121;-70
2023/04/20 08:51:04;;;;;;;9.55;3.88;;;7.50;99.90;;;;;;5073348;28;20048;-72
2023/04/20 08:53:31;;;;;;;11.50;5.28;;;7.50;99.90;;;;;;5073178;28;20520;-73
2023/04/20 08:55:57;;;;;;;11.27;5.60;;;7.50;99.90;;;;;;5073370;28;20032;-68
2023/04/20 08:58:31;;;;;;;14.45;6.55;;;7.50;99.90;;;;;;5072639;28;20035;-71
2023/04/20 09:00:56;;;;;;;9.25;3.83;;;7.50;99.90;;;;;;5072713;28;20052;-71
2023/04/20 09:03:35;;;;;;;8.68;3.33;;;7.50;99.90;;;;;;5073528;28;20072;-71
2023/04/20 09:06:01;;;;;;;7.07;3.78;;;7.50;99.90;;;;;;5073241;28;20032;-69
2023/04/20 09:08:38;;;;;;;14.10;4.57;;;7.50;99.90;;;;;;5072189;28;20044;-69
2023/04/20 09:11:04;;;;;;;6.15;3.63;;;7.40;99.90;;;;;;5073451;28;20025;-71
2023/04/20 09:13:29;;;;;;;9.15;4.32;;;7.50;99.90;;;;;;5071826;28;20032;-69
2023/04/20 09:15:55;;;;;;;7.82;3.90;;;7.50;99.90;;;;;;5072660;28;20068;-71
2023/04/20 09:18:22;;;;;;;7.68;4.07;;;7.60;99.90;;;;;;5073173;28;20035;-72
2023/04/20 09:20:48;;;;;;;11.13;4.20;;;7.60;99.90;;;;;;5073014;28;20028;-72
2023/04/20 09:23:15;;;;;;;10.60;4.43;;;7.70;99.90;;;;;;5073220;28;20028;-73
2023/04/20 09:25:42;;;;;;;7.70;3.80;;;7.80;99.90;;;;;;5065939;28;20024;-72
2023/04/20 09:28:08;;;;;;;9.05;3.75;;;7.90;99.90;;;;;;5057081;28;20047;-71
2023/04/20 09:30:46;;;;;;;10.18;4.10;;;8.00;99.90;;;;;;5073047;28;20028;-73
2023/04/20 09:33:13;;;;;;;7.93;3.97;;;8.20;99.90;;;;;;5073108;28;20047;-70
2023/04/20 09:35:40;;;;;;;9.68;3.63;;;8.40;99.90;;;;;;5072128;28;20059;-70
2023/04/20 09:38:07;;;;;;;10.85;4.00;;;8.60;99.90;;;;;;5073372;28;20024;-71
2023/04/20 09:40:34;;;;;;;11.63;3.67;;;8.80;99.90;;;;;;5071751;28;20036;-73
2023/04/20 09:43:08;;;;;;;8.10;4.35;;;9.00;99.90;;;;;;5052860;28;20032;-73
2023/04/20 09:45:36;;;;;;;10.13;4.43;;;9.20;99.90;;;;;;5057020;28;20025;-73
2023/04/20 09:48:07;;;;;;;6.05;3.22;;;9.40;99.90;;;;;;5057015;28;20037;-74
2023/04/20 09:50:36;;;;;;;7.80;3.67;;;9.50;99.90;;;;;;5057582;28;20057;-70
2023/04/20 09:53:05;;;;;;;9.55;4.20;;;9.50;99.90;;;;;;5056993;28;20530;-72
2023/04/20 09:55:31;;;;;;;9.75;3.42;;;9.50;99.90;;;;;;5057207;28;20079;-74
2023/04/20 09:57:58;;;;;;;9.15;3.47;;;9.60;99.90;;;;;;5060931;28;20054;-73
2023/04/20 10:00:24;;;;;;;8.88;3.33;;;9.70;99.90;;;;;;5076884;28;20089;-71
2023/04/20 10:02:50;;;;;;;10.00;3.75;;;9.70;99.90;;;;;;5077027;28;20056;-72
2023/04/20 10:05:16;;;;;;;7.53;3.92;;;9.70;99.90;;;;;;5077001;28;20450;-74
2023/04/20 10:07:42;;;;;;;6.03;3.13;;;9.60;99.90;;;;;;5076864;28;20407;-74
2023/04/20 10:10:09;;;;;;;10.52;3.42;;;9.50;99.90;;;;;;5076780;28;20036;-74
2023/04/20 10:12:53;;;;;;;7.03;3.60;;;9.40;99.90;;;;;;5076414;28;20027;-71
2023/04/20 10:15:20;;;;;;;7.82;3.75;;;9.30;99.90;;;;;;5076550;28;20098;-72
2023/04/20 10:17:46;;;;;;;6.95;3.70;;;9.20;99.90;;;;;;5076529;28;20104;-73
2023/04/20 10:20:19;;;;;;;7.30;3.85;;;9.30;99.90;;;;;;5076502;28;20401;-73
2023/04/20 10:22:45;;;;;;;11.05;4.00;;;9.50;99.90;;;;;;5075957;28;20063;-73
2023/04/20 10:25:19;;;;;;;7.35;3.20;;;9.60;99.90;;;;;;5076533;28;20110;-75
2023/04/20 10:28:04;;;;;;;9.50;3.85;;;9.70;99.90;;;;;;5076147;28;20045;-71
2023/04/20 10:30:31;;;;;;;7.47;3.30;;;9.80;99.90;;;;;;5076830;28;20028;-72
2023/04/20 10:33:10;;;;;;;7.15;3.40;;;9.90;99.90;;;;;;5075137;28;20020;-72
2023/04/20 10:35:45;;;;;;;11.98;3.70;;;10.00;99.90;;;;;;5075817;28;20029;-76
2023/04/20 10:38:10;;;;;;;5.53;3.72;;;10.10;99.90;;;;;;5076298;28;20117;-74
2023/04/20 10:40:37;;;;;;;9.13;3.60;;;10.00;99.90;;;;;;5076172;28;20055;-73
2023/04/20 10:43:03;;;;;;;9.00;4.30;;;10.00;99.90;;;;;;5076289;28;20027;-73
2023/04/20 10:45:37;;;;;;;7.07;3.35;;;10.00;99.90;;;;;;5076226;28;20032;-73
2023/04/20 10:48:09;;;;;;;7.18;3.08;;;10.10;99.90;;;;;;5075832;28;20445;-75
2023/04/20 10:50:35;;;;;;;6.03;3.22;;;10.20;99.90;;;;;;5076386;28;20060;-71
2023/04/20 10:53:03;;;;;;;6.50;3.65;;;10.40;99.90;;;;;;5076527;28;20085;-76
2023/04/20 10:55:29;;;;;;;6.13;3.80;;;10.70;99.90;;;;;;5075170;28;20032;-71
2023/04/20 10:57:54;;;;;;;9.38;4.28;;;11.10;99.90;;;;;;5076130;28;20384;-72
2023/04/20 11:00:29;;;;;;;8.32;3.38;;;11.50;99.90;;;;;;5075749;28;20064;-72
2023/04/20 11:02:56;;;;;;;6.00;3.47;;;12.00;99.90;;;;;;5075475;28;20035;-72
2023/04/20 11:05:24;;;;;;;8.38;4.38;;;12.10;99.90;;;;;;5075962;28;20079;-72
2023/04/20 11:07:54;;;;;;;7.65;3.85;;;12.20;99.90;;;;;;5075789;28;20032;-72
2023/04/20 11:10:22;;;;;;;7.18;3.78;;;12.50;99.90;;;;;;5075664;28;20094;-72
2023/04/20 11:12:47;;;;;;;9.93;3.95;;;12.80;99.90;;;;;;5075850;28;20032;-71
2023/04/20 11:15:13;;;;;;;9.80;4.13;;;12.90;99.90;;;;;;5075562;28;20029;-71
2023/04/20 11:17:39;;;;;;;8.38;3.90;;;12.90;99.90;;;;;;5075350;28;20028;-72
2023/04/20 11:20:13;;;;;;;7.97;3.88;;;13.00;99.90;;;;;;5075411;28;20471;-71
2023/04/20 11:22:39;;;;;;;9.57;4.07;;;13.10;99.90;;;;;;5075414;28;20059;-71
2023/04/20 11:25:07;;;;;;;7.65;3.70;;;13.40;99.90;;;;;;5074206;28;20430;-71
2023/04/20 11:27:37;;;;;;;8.25;3.80;;;13.80;99.90;;;;;;5075224;28;20024;-71
2023/04/20 11:30:04;;;;;;;6.70;3.75;;;14.10;99.90;;;;;;5075180;28;20029;-72
2023/04/20 11:32:31;;;;;;;8.85;4.00;;;14.30;99.90;;;;;;5075263;28;20090;-73
2023/04/20 11:34:59;;;;;;;8.43;3.55;;;14.60;99.90;;;;;;5073947;28;20111;-73
2023/04/20 11:37:25;;;;;;;9.23;3.65;;;14.80;99.90;;;;;;5075233;28;20432;-72
2023/04/20 11:40:03;;;;;;;8.07;4.10;;;14.90;99.90;;;;;;5075137;28;20120;-73
2023/04/20 11:42:29;;;;;;;7.57;3.80;;;14.90;99.90;;;;;;5074728;28;20017;-72
2023/04/20 11:44:55;;;;;;;5.60;3.63;;;15.30;99.70;;;;;;5075132;28;20047;-73
2023/04/20 11:47:20;;;;;;;9.27;3.88;;;15.60;99.20;;;;;;5074921;28;20047;-72
2023/04/20 11:49:46;;;;;;;8.73;4.30;;;15.60;98.80;;;;;;5073622;28;20028;-73
2023/04/20 11:52:11;;;;;;;7.72;4.18;;;15.80;98.70;;;;;;5074927;28;20029;-73
2023/04/20 11:54:37;;;;;;;10.15;4.50;;;16.00;98.50;;;;;;5074765;28;20051;-71
2023/04/20 11:57:03;;;;;;;7.50;3.75;;;16.30;97.80;;;;;;5074600;28;20388;-72
2023/04/20 11:59:29;;;;;;;11.27;4.07;;;16.70;97.00;;;;;;5073790;28;20093;-73
2023/04/20 12:01:55;;;;;;;6.95;3.45;;;17.10;96.50;;;;;;5072064;28;20021;-72
2023/04/20 12:04:20;;;;;;;7.88;3.80;;;17.60;95.40;;;;;;5073561;28;20107;-72
2023/04/20 12:06:46;;;;;;;7.30;3.75;;;17.50;95.40;;;;;;5072931;28;20036;-72
2023/04/20 12:09:12;;;;;;;8.27;3.63;;;17.30;95.60;;;;;;5073291;28;20040;-72
2023/04/20 12:11:38;;;;;;;9.68;4.50;;;17.00;96.10;;;;;;5073156;28;20028;-72
2023/04/20 12:14:03;;;;;;;5.75;3.38;;;17.10;96.10;;;;;;5073373;28;20051;-72
2023/04/20 12:16:29;;;;;;;8.63;3.80;;;17.20;95.60;;;;;;5073117;28;20068;-72
2023/04/20 12:18:55;;;;;;;9.00;4.10;;;17.70;95.60;;;;;;5069892;28;20495;-73
2023/04/20 12:21:21;;;;;;;7.15;3.75;;;18.10;95.10;;;;;;5071193;28;20021;-72
2023/04/20 12:23:48;;;;;;;7.10;3.47;;;18.50;94.30;;;;;;5073381;28;20477;-71
2023/04/20 12:26:14;;;;;;;8.88;4.28;;;18.90;93.30;;;;;;5073290;28;20028;-72
2023/04/20 12:28:39;;;;;;;7.80;3.80;;;18.70;93.40;;;;;;5073969;28;20044;-70
2023/04/20 12:31:06;;;;;;;6.57;4.05;;;18.50;93.80;;;;;;5069773;28;20028;-71
2023/04/20 12:33:32;;;;;;;9.13;4.10;;;18.00;93.50;;;;;;5067434;28;20048;-71
2023/04/20 12:35:57;;;;;;;8.57;3.70;;;17.60;93.50;;;;;;5072665;28;20242;-71
2023/04/20 12:38:24;;;;;;;8.43;4.05;;;17.20;94.30;;;;;;5071624;28;20099;-72
2023/04/20 12:40:50;;;;;;;11.35;4.57;;;16.80;94.30;;;;;;5062408;28;20040;-71
2023/04/20 12:43:18;;;;;;;9.27;4.25;;;16.60;95.40;;;;;;5056405;28;20033;-74
2023/04/20 12:45:45;;;;;;;11.27;5.00;;;16.30;95.70;;;;;;5073784;28;20024;-71
2023/04/20 12:48:10;;;;;;;8.90;4.82;;;16.00;96.10;;;;;;5069994;28;20062;-72
2023/04/20 12:50:36;;;;;;;9.30;4.70;;;16.10;96.50;;;;;;5068736;28;20606;-71